Time;durP1;ratioP1;P1;durP2;ratioP2;P2;SDS_P1;SDS_P2;PMS_P1;PMS_P2;Temp;Humidity;BMP_temperature;BMP_pressure;BME280_temperature;BME280_humidity;BME280_pressure;Samples;Min_cycle;Max_cycle;Signal;HPM_P1;HPM_P2
2022/03/14 00:01:21;;;;;;;32.60;18.38;;;2.80;69.00;;;;;;2602866;54;20928;31
2022/03/14 00:04:01;;;;;;;35.60;18.40;;;2.70;69.50;;;;;;2602922;54;20022;31
2022/03/14 00:06:36;;;;;;;33.53;18.27;;;2.70;69.50;;;;;;2602682;54;21973;31
2022/03/14 00:09:16;;;;;;;42.20;20.75;;;2.70;69.90;;;;;;2602828;54;20038;31
2022/03/14 00:11:54;;;;;;;39.90;19.70;;;2.60;70.00;;;;;;2603054;54;20747;31
2022/03/14 00:14:35;;;;;;;36.67;20.83;;;2.60;70.20;;;;;;2602704;54;20034;31
2022/03/14 00:17:11;;;;;;;40.63;19.95;;;2.60;70.50;;;;;;2602867;54;20746;31
2022/03/14 00:19:47;;;;;;;41.92;21.70;;;2.50;70.50;;;;;;2621054;46;20027;31
2022/03/14 00:22:27;;;;;;;41.28;20.42;;;2.50;70.60;;;;;;2621566;46;20034;31
2022/03/14 00:25:06;;;;;;;39.00;20.52;;;2.40;70.90;;;;;;2621312;46;20031;31
2022/03/14 00:27:41;;;;;;;40.55;20.05;;;2.40;71.10;;;;;;2602806;54;20026;31
2022/03/14 00:30:20;;;;;;;36.42;20.05;;;2.40;71.30;;;;;;2602887;54;20917;31
2022/03/14 00:32:59;;;;;;;38.85;20.75;;;2.40;71.50;;;;;;2621003;46;20037;31
2022/03/14 00:35:34;;;;;;;40.97;20.83;;;2.30;71.60;;;;;;2602739;54;20832;31
2022/03/14 00:38:14;;;;;;;38.03;19.08;;;2.30;71.90;;;;;;2602727;54;20030;31
2022/03/14 00:40:57;;;;;;;40.60;20.40;;;2.20;72.10;;;;;;2621159;46;20110;31
2022/03/14 00:43:34;;;;;;;36.53;20.33;;;2.20;72.40;;;;;;2602073;54;20038;31
2022/03/14 00:46:17;;;;;;;37.80;21.30;;;2.20;72.60;;;;;;2602859;54;20320;31
2022/03/14 00:49:05;;;;;;;38.75;19.55;;;2.10;72.90;;;;;;2602950;54;20034;31
2022/03/14 00:51:40;;;;;;;;;;;2.10;72.90;;;;;;2602957;54;20767;31
2022/03/14 00:54:17;;;;;;;41.08;20.85;;;2.10;73.60;;;;;;2602841;54;20015;31
2022/03/14 00:56:59;;;;;;;45.30;23.60;;;2.10;73.40;;;;;;2602837;54;20030;31
2022/03/14 00:59:34;;;;;;;38.95;21.85;;;2.00;73.80;;;;;;2602619;54;20030;31
2022/03/14 01:02:17;;;;;;;39.08;20.98;;;1.90;73.90;;;;;;2602073;54;20632;31
2022/03/14 01:04:53;;;;;;;41.85;22.10;;;2.00;74.20;;;;;;2609344;46;20788;31
2022/03/14 01:07:29;;;;;;;41.85;23.35;;;1.90;74.50;;;;;;2601917;54;20053;31
2022/03/14 01:10:13;;;;;;;38.65;22.10;;;1.80;74.40;;;;;;2701100;39;21602;31
2022/03/14 01:12:51;;;;;;;38.15;19.88;;;1.80;74.70;;;;;;2719586;39;21600;31
2022/03/14 01:15:29;;;;;;;38.75;19.20;;;1.80;74.90;;;;;;2602586;54;20093;31
2022/03/14 01:18:23;;;;;;;39.58;20.70;;;1.70;75.10;;;;;;2602465;54;20026;31
2022/03/14 01:21:03;;;;;;;42.40;22.10;;;1.80;75.50;;;;;;2602860;54;20026;31
2022/03/14 01:27:16;;;;;;;38.95;20.90;;;1.70;75.90;;;;;;2602774;54;20077;31
2022/03/14 01:30:14;;;;;;;41.58;22.08;;;1.60;76.00;;;;;;2602691;54;20124;31
2022/03/14 01:32:57;;;;;;;41.75;21.63;;;1.60;76.30;;;;;;2602606;54;20029;31
2022/03/14 01:45:18;;;;;;;45.67;24.02;;;1.40;77.60;;;;;;2601974;54;20030;31
2022/03/14 01:48:34;;;;;;;40.45;22.45;;;1.30;77.90;;;;;;2602503;54;20022;31
2022/03/14 01:51:36;;;;;;;41.50;22.77;;;1.30;78.10;;;;;;2602527;54;20037;31
2022/03/14 01:54:35;;;;;;;52.63;26.20;;;1.20;78.40;;;;;;2602521;54;20026;31
2022/03/14 01:57:27;;;;;;;44.97;23.13;;;1.20;78.80;;;;;;2620681;47;20262;31
2022/03/14 02:09:18;;;;;;;44.33;23.98;;;1.10;79.70;;;;;;2602386;54;20030;31
2022/03/14 02:12:07;;;;;;;45.85;24.30;;;1.00;80.10;;;;;;2602296;54;20022;31
2022/03/14 02:14:46;;;;;;;47.30;24.77;;;1.00;80.80;;;;;;2602630;54;20747;31
2022/03/14 02:17:31;;;;;;;49.65;25.67;;;0.90;81.20;;;;;;2602361;54;20068;31
2022/03/14 02:20:14;;;;;;;48.70;24.27;;;0.90;81.80;;;;;;2701665;39;20511;31
2022/03/14 02:23:03;;;;;;;49.60;25.88;;;0.90;81.90;;;;;;2603331;54;20034;31
2022/03/14 02:25:55;;;;;;;46.22;24.92;;;0.80;81.90;;;;;;2701819;39;21547;31
2022/03/14 02:28:52;;;;;;;43.28;24.67;;;0.80;81.90;;;;;;2603291;54;20100;31
2022/03/14 02:31:35;;;;;;;43.15;22.77;;;0.80;82.60;;;;;;2621460;46;20027;31
2022/03/14 02:34:59;;;;;;;45.53;24.30;;;0.80;82.50;;;;;;2603452;54;20775;31
2022/03/14 02:37:58;;;;;;;47.60;25.60;;;0.70;83.60;;;;;;2603247;54;20057;31
2022/03/14 02:40:39;;;;;;;54.13;27.57;;;0.60;84.00;;;;;;2620341;46;20026;31
2022/03/14 02:43:43;;;;;;;45.67;22.80;;;0.60;84.30;;;;;;2621960;46;19954;31
2022/03/14 02:46:22;;;;;;;48.85;23.48;;;0.60;83.80;;;;;;2602959;54;20031;31
2022/03/14 02:49:01;;;;;;;45.20;25.27;;;0.60;84.40;;;;;;2621501;46;20037;31
2022/03/14 02:51:42;;;;;;;49.97;25.35;;;0.50;85.20;;;;;;2602857;54;20014;31
2022/03/14 02:54:21;;;;;;;49.13;25.77;;;0.50;85.40;;;;;;2621416;46;20043;31
2022/03/14 02:56:59;;;;;;;44.85;23.35;;;0.50;85.70;;;;;;2602994;54;20077;31
2022/03/14 02:59:35;;;;;;;47.85;26.20;;;0.40;86.00;;;;;;2603219;54;20089;31
2022/03/14 03:02:18;;;;;;;56.72;26.88;;;0.40;86.90;;;;;;2602277;54;20085;31
2022/03/14 03:07:48;;;;;;;52.80;25.70;;;0.30;87.90;;;;;;2603011;54;20775;31
2022/03/14 03:10:29;;;;;;;46.92;26.02;;;0.30;88.90;;;;;;2701567;39;20497;31
2022/03/14 03:13:07;;;;;;;56.10;26.27;;;0.30;89.30;;;;;;2603045;54;20119;31
2022/03/14 03:15:48;;;;;;;55.10;27.30;;;0.20;90.00;;;;;;2621396;46;20097;31
2022/03/14 03:18:26;;;;;;;50.38;26.02;;;0.20;90.50;;;;;;2603101;54;20030;31
2022/03/14 03:21:07;;;;;;;50.40;28.02;;;0.10;90.50;;;;;;2603085;54;20031;31
2022/03/14 03:23:47;;;;;;;52.10;26.30;;;0.10;90.50;;;;;;2603200;54;20027;31
2022/03/14 03:26:34;;;;;;;53.13;25.73;;;0.20;90.60;;;;;;2603195;54;20911;31
2022/03/14 03:29:10;;;;;;;52.40;26.80;;;0.10;90.80;;;;;;2602769;54;20056;31
2022/03/14 03:31:47;;;;;;;49.70;26.40;;;0.10;91.20;;;;;;2603036;54;20089;31
2022/03/14 03:34:26;;;;;;;49.85;25.52;;;0.10;91.40;;;;;;2603187;54;20891;31
2022/03/14 03:37:02;;;;;;;60.92;30.08;;;0.00;91.60;;;;;;2602883;54;20026;31
2022/03/14 03:39:38;;;;;;;55.25;29.00;;;0.00;92.10;;;;;;2621222;46;20031;31
2022/03/14 03:42:19;;;;;;;57.97;28.63;;;0.10;92.40;;;;;;2621379;46;22435;31
2022/03/14 03:44:54;;;;;;;58.15;29.50;;;0.00;92.60;;;;;;2603214;54;21169;31
2022/03/14 03:47:32;;;;;;;53.67;28.30;;;0.00;92.90;;;;;;2603040;54;20042;31
2022/03/14 03:50:13;;;;;;;52.67;28.05;;;-0.10;93.40;;;;;;2602945;54;20101;31
2022/03/14 03:52:49;;;;;;;53.15;28.17;;;-0.10;93.60;;;;;;2602757;54;20915;31
2022/03/14 03:55:27;;;;;;;55.50;28.23;;;-0.20;93.60;;;;;;2602769;54;20831;31
2022/03/14 03:58:05;;;;;;;62.95;28.63;;;-0.20;94.50;;;;;;2603093;54;20893;31
2022/03/14 04:00:41;;;;;;;51.87;28.27;;;-0.10;94.60;;;;;;2621263;46;20052;31
2022/03/14 04:03:22;;;;;;;53.88;28.92;;;-0.20;94.80;;;;;;2604642;46;20273;31
2022/03/14 04:06:01;;;;;;;55.70;28.48;;;-0.20;95.20;;;;;;2603220;54;20889;31
2022/03/14 04:08:38;;;;;;;55.75;27.60;;;-0.20;95.50;;;;;;2602993;54;20754;31
2022/03/14 04:11:20;;;;;;;53.75;29.55;;;-0.20;96.20;;;;;;2602970;54;20086;31
2022/03/14 04:13:58;;;;;;;50.70;27.17;;;-0.30;96.40;;;;;;2621610;46;20033;31
2022/03/14 04:16:37;;;;;;;51.10;28.27;;;-0.30;96.50;;;;;;2602775;54;20071;31
2022/03/14 04:19:16;;;;;;;54.33;27.65;;;-0.30;96.80;;;;;;2601875;54;20049;31
2022/03/14 04:21:54;;;;;;;52.03;27.83;;;-0.30;97.00;;;;;;2602643;54;20034;31
2022/03/14 04:24:29;;;;;;;52.10;28.02;;;-0.30;97.50;;;;;;2602874;54;20102;31
2022/03/14 04:27:12;;;;;;;53.53;28.27;;;-0.30;97.60;;;;;;2602103;54;20074;31
2022/03/14 04:29:51;;;;;;;54.05;28.77;;;-0.40;97.80;;;;;;2602680;54;20045;31
2022/03/14 04:32:31;;;;;;;54.70;27.70;;;-0.40;98.20;;;;;;2603048;54;20876;31
2022/03/14 04:35:10;;;;;;;55.85;26.98;;;-0.40;97.60;;;;;;2602949;54;20113;31
2022/03/14 04:37:54;;;;;;;51.47;26.97;;;-0.40;97.70;;;;;;2602837;54;20038;31
2022/03/14 04:40:32;;;;;;;55.15;28.33;;;-0.40;98.30;;;;;;2602831;54;20038;31
2022/03/14 04:43:15;;;;;;;53.80;27.85;;;-0.40;98.70;;;;;;2614930;46;20044;31
2022/03/14 04:45:53;;;;;;;55.20;27.15;;;-0.40;99.20;;;;;;2602526;46;20058;31
2022/03/14 04:48:34;;;;;;;52.60;27.80;;;-0.40;99.60;;;;;;2602866;54;20918;31
2022/03/14 04:51:11;;;;;;;50.42;27.98;;;-0.40;99.50;;;;;;2602885;54;20846;31
2022/03/14 04:53:47;;;;;;;50.53;26.38;;;-0.40;99.50;;;;;;2602792;54;20886;31
2022/03/14 04:56:21;;;;;;;;;;;-0.40;99.70;;;;;;2603101;54;20932;31
2022/03/14 04:58:56;;;;;;;55.15;26.33;;;-0.40;99.90;;;;;;2602783;54;19985;31
2022/03/14 05:01:34;;;;;;;53.50;25.80;;;-0.50;99.90;;;;;;2602897;54;20929;31
2022/03/14 05:04:11;;;;;;;52.30;27.00;;;-0.50;99.90;;;;;;2602021;54;20083;31
2022/03/14 05:06:49;;;;;;;49.23;26.43;;;-0.50;99.90;;;;;;2601912;54;20912;31
2022/03/14 05:09:39;;;;;;;54.15;27.35;;;-0.50;99.90;;;;;;2618415;46;20340;31
2022/03/14 05:12:19;;;;;;;56.47;30.27;;;-0.40;99.90;;;;;;2618371;46;20052;31
2022/03/14 05:14:56;;;;;;;58.90;28.83;;;-0.50;99.90;;;;;;2602713;54;20834;31
2022/03/14 05:17:33;;;;;;;;;;;-0.60;99.90;;;;;;2621144;46;20075;31
2022/03/14 05:20:15;;;;;;;55.20;28.13;;;-0.60;99.90;;;;;;2602916;54;19937;31
2022/03/14 05:22:53;;;;;;;57.15;28.23;;;-0.60;99.90;;;;;;2620971;46;20032;31
2022/03/14 05:28:11;;;;;;;51.85;28.38;;;-0.70;99.90;;;;;;2602624;54;20026;31
2022/03/14 05:30:50;;;;;;;57.10;28.95;;;-0.70;99.90;;;;;;2602754;54;20842;31
2022/03/14 05:33:30;;;;;;;56.88;30.15;;;-0.70;99.90;;;;;;2602588;54;20034;31
2022/03/14 05:36:12;;;;;;;61.70;29.90;;;-0.70;99.90;;;;;;2621230;47;22344;31
2022/03/14 05:38:45;;;;;;;61.63;30.05;;;-0.70;99.90;;;;;;2601822;54;22014;31
2022/03/14 05:41:21;;;;;;;57.60;30.10;;;-0.70;99.90;;;;;;2602725;54;21330;31
2022/03/14 05:43:57;;;;;;;52.08;29.10;;;-0.60;99.90;;;;;;2602963;54;20114;31
2022/03/14 05:46:34;;;;;;;64.10;30.70;;;-0.60;99.90;;;;;;2602649;54;20056;31
2022/03/14 05:49:09;;;;;;;57.33;27.05;;;-0.60;99.90;;;;;;2602715;54;20946;31
2022/03/14 05:51:51;;;;;;;57.88;29.60;;;-0.50;99.90;;;;;;2602011;54;20414;31
2022/03/14 05:54:27;;;;;;;61.35;30.27;;;-0.40;99.90;;;;;;2602592;54;20098;31
2022/03/14 05:57:08;;;;;;;61.33;29.27;;;-0.20;99.90;;;;;;2603451;54;20589;31
2022/03/14 05:59:42;;;;;;;55.72;29.40;;;0.00;99.90;;;;;;2603403;54;21228;31
2022/03/14 06:02:23;;;;;;;50.05;26.70;;;0.20;99.90;;;;;;2603345;54;20783;31
2022/03/14 06:05:01;;;;;;;55.10;27.43;;;0.70;99.90;;;;;;2603359;54;20035;31
2022/03/14 06:07:42;;;;;;;54.88;29.90;;;1.20;99.90;;;;;;2603576;54;21218;31
2022/03/14 06:10:26;;;;;;;72.23;37.13;;;1.80;99.90;;;;;;2603339;54;20609;31
2022/03/14 06:13:04;;;;;;;104.93;47.70;;;2.50;98.70;;;;;;2621799;46;22677;31
2022/03/14 06:15:43;;;;;;;65.50;33.10;;;3.00;97.00;;;;;;2603551;54;20821;31
2022/03/14 06:18:19;;;;;;;59.45;35.20;;;3.60;95.70;;;;;;2603154;54;20986;31
2022/03/14 06:21:18;;;;;;;79.45;42.33;;;4.10;95.10;;;;;;2603455;54;20892;31
2022/03/14 06:24:12;;;;;;;100.47;51.67;;;4.70;93.80;;;;;;2603417;54;20035;31
2022/03/14 06:26:49;;;;;;;58.53;31.90;;;5.20;92.20;;;;;;2603275;54;20880;31
2022/03/14 06:29:24;;;;;;;59.60;32.42;;;5.70;91.70;;;;;;2602981;54;20033;31
2022/03/14 06:32:02;;;;;;;55.63;33.10;;;6.10;90.30;;;;;;2603213;54;20045;31
2022/03/14 06:34:38;;;;;;;60.20;28.15;;;6.60;90.20;;;;;;2603163;54;20895;31
2022/03/14 06:37:14;;;;;;;51.42;27.25;;;7.00;86.50;;;;;;2603220;54;20026;31
2022/03/14 06:39:54;;;;;;;50.20;27.85;;;7.20;84.00;;;;;;2603269;54;20744;31
2022/03/14 06:42:27;;;;;;;48.15;26.50;;;7.30;82.20;;;;;;2603249;54;21155;31
2022/03/14 06:45:09;;;;;;;44.08;26.98;;;7.50;80.50;;;;;;2620750;46;20057;31
2022/03/14 06:47:44;;;;;;;48.45;26.42;;;7.80;80.40;;;;;;2603084;54;20868;31
2022/03/14 06:50:24;;;;;;;47.45;25.77;;;8.00;78.30;;;;;;2603001;54;21011;31
2022/03/14 06:53:04;;;;;;;49.88;27.65;;;8.10;77.20;;;;;;2701496;39;20592;31
2022/03/14 06:55:44;;;;;;;46.95;25.55;;;8.20;75.10;;;;;;2602767;54;20912;31
2022/03/14 06:58:20;;;;;;;46.40;27.05;;;8.30;75.70;;;;;;2602710;54;20059;31
2022/03/14 07:00:57;;;;;;;47.33;26.10;;;8.20;73.70;;;;;;2603235;54;20934;31
2022/03/14 07:03:32;;;;;;;48.55;24.88;;;8.30;74.00;;;;;;2601870;54;20089;31
2022/03/14 07:06:08;;;;;;;42.35;26.77;;;8.20;73.20;;;;;;2602257;54;20038;31
2022/03/14 07:08:47;;;;;;;;;;;8.30;73.80;;;;;;2602595;54;20026;31
2022/03/14 07:11:27;;;;;;;42.92;23.13;;;8.40;72.30;;;;;;2602967;54;20794;31
2022/03/14 07:14:00;;;;;;;42.60;23.25;;;8.30;72.30;;;;;;2603083;54;21311;31
2022/03/14 07:16:35;;;;;;;38.35;22.27;;;8.40;71.40;;;;;;2621448;46;20089;31
2022/03/14 07:19:11;;;;;;;45.95;22.85;;;8.40;70.90;;;;;;2621246;46;20779;31
2022/03/14 07:21:45;;;;;;;45.10;24.97;;;8.40;70.60;;;;;;2621388;46;21178;31
2022/03/14 07:24:20;;;;;;;44.00;25.60;;;8.50;70.90;;;;;;2602963;54;20038;31
2022/03/14 07:26:57;;;;;;;53.90;25.07;;;8.70;69.80;;;;;;2602844;54;20081;31
2022/03/14 07:29:33;;;;;;;40.67;22.40;;;8.60;69.30;;;;;;2602752;54;20030;31
2022/03/14 07:32:09;;;;;;;;;;;8.80;68.60;;;;;;2603126;54;20845;31
2022/03/14 07:34:49;;;;;;;40.20;23.55;;;8.90;68.30;;;;;;2604440;46;20683;31
2022/03/14 07:37:25;;;;;;;37.45;20.33;;;8.90;67.90;;;;;;2602737;54;20939;31
2022/03/14 07:40:00;;;;;;;;;;;8.90;67.50;;;;;;2701724;39;21678;31
2022/03/14 07:42:41;;;;;;;38.25;18.73;;;9.10;67.20;;;;;;2603023;54;20773;31
2022/03/14 07:45:20;;;;;;;35.85;20.15;;;9.10;66.60;;;;;;2602849;54;21240;31
2022/03/14 07:47:53;;;;;;;29.38;17.73;;;9.20;66.70;;;;;;2602881;54;21187;31
2022/03/14 07:50:29;;;;;;;31.98;18.33;;;9.30;65.60;;;;;;2601999;54;20355;31
2022/03/14 07:53:06;;;;;;;30.15;18.75;;;9.30;65.60;;;;;;2620114;46;20034;31
2022/03/14 07:55:43;;;;;;;31.95;20.00;;;9.30;66.00;;;;;;2603208;54;20869;31
2022/03/14 07:58:25;;;;;;;29.65;18.42;;;9.50;65.30;;;;;;2602614;54;20137;31
2022/03/14 08:01:04;;;;;;;35.13;18.80;;;9.70;65.80;;;;;;2621342;46;21715;31
2022/03/14 08:03:40;;;;;;;29.25;17.55;;;10.10;65.20;;;;;;2602878;54;20242;31
2022/03/14 08:06:23;;;;;;;26.80;15.82;;;10.50;65.10;;;;;;2602973;54;20050;31
2022/03/14 08:09:01;;;;;;;31.40;19.10;;;10.70;62.80;;;;;;2602866;54;20033;31
2022/03/14 08:11:41;;;;;;;28.45;16.05;;;10.80;62.50;;;;;;2602786;54;20053;31
2022/03/14 08:14:19;;;;;;;22.75;15.35;;;10.90;61.90;;;;;;2602699;54;20034;31
2022/03/14 08:16:54;;;;;;;33.47;19.00;;;11.00;61.10;;;;;;2601776;54;20030;31
2022/03/14 08:19:29;;;;;;;24.13;14.33;;;11.00;61.20;;;;;;2602737;54;21376;31
2022/03/14 08:22:03;;;;;;;22.30;13.27;;;11.10;59.90;;;;;;2602731;54;21940;31
2022/03/14 08:24:39;;;;;;;23.77;14.95;;;11.20;59.90;;;;;;2602542;54;20231;31
2022/03/14 08:27:14;;;;;;;21.92;12.65;;;11.30;59.00;;;;;;2602641;54;20026;31
2022/03/14 08:29:52;;;;;;;23.65;12.82;;;11.30;58.80;;;;;;2602585;54;20749;31
2022/03/14 08:32:28;;;;;;;23.25;12.75;;;11.40;57.90;;;;;;2602644;54;20914;31
2022/03/14 08:35:07;;;;;;;26.30;14.97;;;11.50;57.70;;;;;;2602567;54;20859;31
2022/03/14 08:37:50;;;;;;;19.30;12.30;;;11.60;57.70;;;;;;2602669;54;20762;31
2022/03/14 08:40:28;;;;;;;21.60;12.17;;;11.60;57.10;;;;;;2602439;54;20250;31
2022/03/14 08:43:02;;;;;;;19.75;11.32;;;11.80;57.30;;;;;;2602703;54;20766;31
2022/03/14 08:45:43;;;;;;;19.23;11.77;;;11.90;56.10;;;;;;2602492;54;20822;31
2022/03/14 08:48:20;;;;;;;18.45;12.80;;;12.10;56.40;;;;;;2602973;54;20037;31
2022/03/14 08:50:58;;;;;;;19.87;12.00;;;12.10;55.00;;;;;;2602674;54;20042;31
2022/03/14 08:53:34;;;;;;;25.80;13.25;;;12.10;54.60;;;;;;2621003;46;21177;31
2022/03/14 08:56:10;;;;;;;20.67;15.23;;;12.20;54.80;;;;;;2701156;39;21617;31
2022/03/14 08:58:47;;;;;;;23.90;12.70;;;12.40;54.40;;;;;;2602493;54;20033;31
2022/03/14 09:01:25;;;;;;;22.80;13.27;;;12.70;54.20;;;;;;2602698;54;20026;31
2022/03/14 09:04:00;;;;;;;18.95;11.85;;;12.80;53.70;;;;;;2602891;54;20026;31
2022/03/14 09:06:37;;;;;;;15.47;11.77;;;12.90;53.30;;;;;;2602299;54;20027;31
2022/03/14 09:09:12;;;;;;;;;;;13.00;53.00;;;;;;2602828;54;20227;31
2022/03/14 09:11:47;;;;;;;16.20;10.05;;;13.00;51.60;;;;;;2621043;46;19934;31
2022/03/14 09:14:22;;;;;;;17.50;10.80;;;12.90;51.50;;;;;;2602592;54;20946;31
2022/03/14 09:17:01;;;;;;;14.53;9.90;;;13.00;52.40;;;;;;2602450;54;20026;31
2022/03/14 09:19:40;;;;;;;14.30;9.30;;;13.00;51.40;;;;;;2620960;46;20026;31
2022/03/14 09:22:18;;;;;;;21.52;10.88;;;12.90;50.90;;;;;;2602739;54;20030;31
2022/03/14 09:24:55;;;;;;;22.40;12.05;;;12.90;51.70;;;;;;2602538;54;20856;31
2022/03/14 09:27:33;;;;;;;14.25;10.10;;;13.00;51.40;;;;;;2602111;54;20053;31
2022/03/14 09:30:11;;;;;;;16.35;10.25;;;13.00;52.10;;;;;;2602597;54;21000;31
2022/03/14 09:32:49;;;;;;;15.73;9.63;;;13.00;50.80;;;;;;2602514;54;20109;31
2022/03/14 09:35:26;;;;;;;15.75;9.90;;;13.10;50.60;;;;;;2602390;54;20952;31
2022/03/14 09:38:02;;;;;;;17.92;9.95;;;13.20;50.90;;;;;;2602392;54;20042;31
2022/03/14 09:40:37;;;;;;;18.15;8.93;;;13.30;49.90;;;;;;2602353;54;20034;31
2022/03/14 09:43:12;;;;;;;16.58;9.80;;;13.40;50.20;;;;;;2602502;54;20769;31
2022/03/14 09:45:52;;;;;;;19.00;9.35;;;13.40;49.80;;;;;;2602464;54;20841;31
2022/03/14 09:48:34;;;;;;;13.63;8.85;;;13.20;49.20;;;;;;2602304;54;20030;31
2022/03/14 09:51:09;;;;;;;16.38;9.82;;;13.30;50.20;;;;;;2602550;54;20026;31
2022/03/14 09:53:45;;;;;;;16.87;10.07;;;13.30;49.90;;;;;;2602457;54;21209;31
2022/03/14 09:56:20;;;;;;;15.27;8.10;;;13.40;50.40;;;;;;2620668;47;20974;31
2022/03/14 09:58:55;;;;;;;11.40;7.65;;;13.30;49.00;;;;;;2602410;54;20030;31
2022/03/14 10:01:30;;;;;;;11.23;7.82;;;13.30;50.10;;;;;;2602549;54;22399;31
2022/03/14 10:04:12;;;;;;;13.32;7.93;;;13.40;49.10;;;;;;2620736;47;21176;31
2022/03/14 10:06:50;;;;;;;13.77;8.65;;;13.40;48.70;;;;;;2621217;47;20926;31
2022/03/14 10:09:25;;;;;;;17.30;10.70;;;13.40;48.70;;;;;;2621177;47;20759;31
2022/03/14 10:12:02;;;;;;;16.45;8.60;;;13.50;49.70;;;;;;2602418;54;20384;31
2022/03/14 10:14:36;;;;;;;14.60;8.70;;;13.70;48.90;;;;;;2602571;54;20913;31
2022/03/14 10:17:11;;;;;;;13.43;8.80;;;13.60;48.70;;;;;;2602555;54;20030;31
2022/03/14 10:19:56;;;;;;;15.20;8.45;;;13.80;49.40;;;;;;2602270;54;20038;31
2022/03/14 10:22:37;;;;;;;16.10;9.85;;;13.80;48.80;;;;;;2602646;54;20049;31
2022/03/14 10:25:14;;;;;;;15.55;10.20;;;13.70;48.00;;;;;;2602394;54;20842;31
2022/03/14 10:27:54;;;;;;;;;;;13.80;48.70;;;;;;2602594;54;20053;31
2022/03/14 10:30:30;;;;;;;17.93;9.03;;;13.80;48.40;;;;;;2620931;47;19942;31
2022/03/14 10:33:17;;;;;;;15.57;8.35;;;13.90;48.70;;;;;;2602367;54;20026;31
2022/03/14 10:35:57;;;;;;;13.00;8.25;;;13.90;48.70;;;;;;2602371;54;20652;31
2022/03/14 10:38:32;;;;;;;15.90;8.60;;;13.90;48.70;;;;;;2621657;47;20866;31
2022/03/14 10:41:16;;;;;;;16.48;9.50;;;13.90;49.00;;;;;;2621668;46;20027;31
2022/03/14 10:44:10;;;;;;;13.95;8.55;;;13.80;48.90;;;;;;2603119;54;20739;31
2022/03/14 10:46:46;;;;;;;16.75;8.82;;;13.70;48.60;;;;;;2603097;54;20027;31
2022/03/14 10:49:21;;;;;;;12.23;8.60;;;13.70;49.10;;;;;;2603270;54;20857;31
2022/03/14 10:51:59;;;;;;;15.90;9.57;;;13.60;48.50;;;;;;2602387;54;20880;31
2022/03/14 10:54:36;;;;;;;16.35;9.20;;;13.70;49.30;;;;;;2603445;54;20027;31
2022/03/14 10:57:13;;;;;;;14.37;9.37;;;13.60;49.10;;;;;;2603239;54;20844;31
2022/03/14 10:59:48;;;;;;;15.25;9.45;;;13.60;48.90;;;;;;2720155;39;22428;31
2022/03/14 11:02:23;;;;;;;15.95;8.80;;;13.60;48.60;;;;;;2603044;54;20026;31
2022/03/14 11:05:00;;;;;;;16.30;9.25;;;13.50;49.30;;;;;;2603445;54;20026;31
2022/03/14 11:07:40;;;;;;;13.20;8.67;;;13.50;48.60;;;;;;2603118;54;20038;31
2022/03/14 11:10:15;;;;;;;20.40;9.67;;;13.60;49.20;;;;;;2603064;54;20745;31
2022/03/14 11:12:50;;;;;;;13.23;8.37;;;13.60;49.40;;;;;;2603296;54;20783;31
2022/03/14 11:15:28;;;;;;;17.27;8.90;;;13.60;48.80;;;;;;2603226;54;20886;31
2022/03/14 11:18:04;;;;;;;13.20;8.98;;;13.60;49.40;;;;;;2603012;54;20153;31
2022/03/14 11:20:40;;;;;;;13.32;9.23;;;13.50;49.30;;;;;;2603075;54;20742;31
2022/03/14 11:23:19;;;;;;;14.07;8.53;;;13.50;49.70;;;;;;2621482;46;20042;31
2022/03/14 11:25:54;;;;;;;12.82;9.43;;;13.50;49.50;;;;;;2621817;46;20865;31
2022/03/14 11:28:30;;;;;;;17.00;9.50;;;13.60;49.70;;;;;;2621439;46;20038;31
2022/03/14 11:31:10;;;;;;;15.93;9.30;;;13.60;49.70;;;;;;2602988;54;20076;31
2022/03/14 11:33:51;;;;;;;18.35;8.40;;;13.70;49.70;;;;;;2603410;54;20151;31
2022/03/14 11:36:26;;;;;;;17.88;9.30;;;13.70;49.10;;;;;;2603238;54;20026;31
2022/03/14 11:39:05;;;;;;;14.25;8.18;;;13.70;49.00;;;;;;2603059;54;20789;31
2022/03/14 11:41:42;;;;;;;15.38;8.13;;;13.70;49.50;;;;;;2621580;46;20030;31
2022/03/14 11:44:19;;;;;;;11.45;7.53;;;13.80;49.30;;;;;;2602295;54;20049;31
2022/03/14 11:46:57;;;;;;;15.15;8.05;;;13.90;49.00;;;;;;2602996;54;20037;31
2022/03/14 11:49:37;;;;;;;13.50;8.70;;;13.90;48.70;;;;;;2603060;54;20862;31
2022/03/14 11:52:18;;;;;;;14.35;7.80;;;13.90;48.80;;;;;;2602961;54;20027;31
2022/03/14 11:55:06;;;;;;;16.80;7.65;;;13.90;48.80;;;;;;2603160;54;20019;31
2022/03/14 11:57:41;;;;;;;15.77;9.93;;;13.90;48.50;;;;;;2602989;54;20117;31
2022/03/14 12:00:35;;;;;;;15.50;8.00;;;13.90;49.00;;;;;;2603213;54;20030;31
2022/03/14 12:03:09;;;;;;;12.02;7.93;;;13.80;48.80;;;;;;2621354;46;22409;31
2022/03/14 12:05:51;;;;;;;12.25;8.05;;;13.80;48.50;;;;;;2603118;54;20895;31
2022/03/14 12:08:54;;;;;;;12.43;7.50;;;13.70;48.60;;;;;;2602877;54;20053;31
2022/03/14 12:11:47;;;;;;;10.75;7.78;;;13.80;49.10;;;;;;2602956;54;20034;31
2022/03/14 12:14:42;;;;;;;12.02;7.53;;;13.80;48.90;;;;;;2603200;54;22386;31
2022/03/14 12:17:16;;;;;;;59.13;11.68;;;13.90;49.10;;;;;;2603129;54;20177;31
2022/03/14 12:19:52;;;;;;;17.80;8.48;;;14.00;50.30;;;;;;2603134;54;20054;31
2022/03/14 12:22:51;;;;;;;24.75;9.45;;;14.10;51.50;;;;;;2602774;54;20866;31
2022/03/14 12:25:43;;;;;;;13.02;8.95;;;14.20;52.00;;;;;;2603116;54;20876;31
2022/03/14 12:28:32;;;;;;;16.90;9.15;;;14.30;52.00;;;;;;2621508;46;20033;31
2022/03/14 12:31:13;;;;;;;47.20;11.20;;;14.30;52.30;;;;;;2603159;54;20033;31
2022/03/14 12:33:49;;;;;;;12.10;8.20;;;14.30;51.70;;;;;;2621305;46;20042;31
2022/03/14 12:36:45;;;;;;;14.38;8.50;;;14.30;51.50;;;;;;2603059;54;22372;31
2022/03/14 12:39:24;;;;;;;14.45;9.27;;;14.30;51.80;;;;;;2602096;54;20064;31
2022/03/14 12:42:25;;;;;;;11.73;7.80;;;14.30;51.90;;;;;;2602813;54;20030;31
2022/03/14 12:45:32;;;;;;;13.45;9.10;;;14.30;51.50;;;;;;2603192;54;20931;31
2022/03/14 12:48:20;;;;;;;12.67;7.97;;;14.30;51.90;;;;;;2603040;54;20747;31
2022/03/14 12:51:02;;;;;;;15.70;7.93;;;14.30;51.50;;;;;;2603241;54;21061;31
2022/03/14 12:53:53;;;;;;;12.95;8.95;;;14.10;50.30;;;;;;2602836;54;20034;31
2022/03/14 12:56:29;;;;;;;18.98;9.75;;;14.10;51.80;;;;;;2603032;54;20038;31
2022/03/14 12:59:07;;;;;;;17.70;9.82;;;14.10;51.90;;;;;;2602055;54;20041;31
2022/03/14 13:01:42;;;;;;;12.88;9.63;;;14.10;52.20;;;;;;2602323;54;20073;31
2022/03/14 13:04:22;;;;;;;17.00;9.50;;;14.10;52.10;;;;;;2602622;54;20833;31
2022/03/14 13:07:03;;;;;;;14.50;9.48;;;14.00;52.30;;;;;;2603097;54;20874;31
2022/03/14 13:09:56;;;;;;;13.35;9.70;;;14.00;52.40;;;;;;2602856;54;20052;31
2022/03/14 13:12:32;;;;;;;15.10;10.03;;;13.90;52.40;;;;;;2602942;54;20727;31
2022/03/14 13:15:11;;;;;;;16.65;9.48;;;13.90;52.70;;;;;;2602958;54;21063;31
2022/03/14 13:17:49;;;;;;;14.50;9.38;;;13.90;52.80;;;;;;2602650;54;20769;31
2022/03/14 13:20:31;;;;;;;13.93;8.60;;;13.90;52.50;;;;;;2602717;54;20030;31
2022/03/14 13:23:16;;;;;;;13.75;8.88;;;13.90;52.50;;;;;;2602736;54;21136;31
2022/03/14 13:25:53;;;;;;;12.50;9.93;;;13.90;53.00;;;;;;2602741;54;20869;31
2022/03/14 13:28:32;;;;;;;12.05;9.65;;;13.90;53.10;;;;;;2602696;54;20834;31
2022/03/14 13:31:10;;;;;;;12.80;9.80;;;13.90;53.10;;;;;;2602787;54;20052;31
2022/03/14 13:33:47;;;;;;;15.30;9.73;;;14.00;53.40;;;;;;2602656;54;20026;31
2022/03/14 13:36:22;;;;;;;15.55;9.70;;;14.00;52.90;;;;;;2621187;47;20033;31
2022/03/14 13:39:02;;;;;;;14.35;9.57;;;14.00;53.20;;;;;;2602738;54;20033;31
2022/03/14 13:41:38;;;;;;;14.57;10.35;;;13.90;53.20;;;;;;2602701;54;20042;31
2022/03/14 13:44:15;;;;;;;;;;;13.90;53.40;;;;;;2621185;47;20105;31
2022/03/14 13:46:51;;;;;;;14.68;10.35;;;13.90;53.50;;;;;;2621151;47;19934;31
2022/03/14 13:49:28;;;;;;;17.95;10.95;;;13.90;53.50;;;;;;2602840;54;20841;31
2022/03/14 13:52:06;;;;;;;11.80;10.00;;;13.80;53.40;;;;;;2719660;39;20466;31
2022/03/14 13:54:49;;;;;;;12.13;10.38;;;13.80;53.60;;;;;;2602773;54;20037;31
2022/03/14 13:57:26;;;;;;;13.70;9.60;;;13.80;54.30;;;;;;2602474;54;20032;31
2022/03/14 14:00:03;;;;;;;14.03;10.00;;;13.80;53.80;;;;;;2602730;54;20030;31
2022/03/14 14:02:47;;;;;;;14.85;10.90;;;13.80;53.90;;;;;;2602542;54;20026;31
2022/03/14 14:05:23;;;;;;;16.48;10.43;;;13.80;54.00;;;;;;2602638;54;20843;31
2022/03/14 14:08:00;;;;;;;16.10;10.75;;;13.80;54.20;;;;;;2602531;54;20052;31
2022/03/14 14:10:38;;;;;;;13.20;10.45;;;13.80;54.30;;;;;;2602813;54;20846;31
2022/03/14 14:13:15;;;;;;;13.97;10.43;;;13.80;54.50;;;;;;2602925;54;20909;31
2022/03/14 14:15:51;;;;;;;16.30;10.25;;;13.80;54.70;;;;;;2603358;54;20030;31
2022/03/14 14:18:28;;;;;;;18.77;10.83;;;13.80;54.50;;;;;;2603343;54;20764;31